createdAt,value
2018-02-18T00:00:15.473Z,32.92
2018-02-18T00:02:44.421Z,37.25
2018-02-18T00:05:12.209Z,34.15
2018-02-18T00:07:39.971Z,37.33
2018-02-18T00:10:07.769Z,35.08
2018-02-18T00:12:35.552Z,38.90
2018-02-18T00:15:19.132Z,44.15
2018-02-18T00:17:46.879Z,41.45
2018-02-18T00:20:14.632Z,43.92
2018-02-18T00:22:42.476Z,40.67
2018-02-18T00:25:10.238Z,43.17
2018-02-18T00:27:37.982Z,44.20
2018-02-18T00:30:05.804Z,44.33
2018-02-18T00:32:33.549Z,46.30
2018-02-18T00:35:01.298Z,47.00
2018-02-18T00:37:29.090Z,47.22
2018-02-18T00:39:56.849Z,44.95
2018-02-18T00:42:24.609Z,48.85
2018-02-18T00:44:52.408Z,46.03
2018-02-18T00:47:20.157Z,49.42
2018-02-18T00:49:48.669Z,45.03
2018-02-18T00:52:16.517Z,44.45
2018-02-18T00:54:44.266Z,42.47
2018-02-18T00:57:12.004Z,47.30
2018-02-18T00:59:40.574Z,45.90
2018-02-18T01:02:08.320Z,44.63
2018-02-18T01:04:36.075Z,45.92
2018-02-18T01:07:03.897Z,46.50
2018-02-18T01:09:31.642Z,44.03
2018-02-18T01:12:00.160Z,43.00
2018-02-18T01:14:27.960Z,43.30
2018-02-18T01:16:55.706Z,43.80
2018-02-18T01:19:23.475Z,40.72
2018-02-18T01:21:51.264Z,37.78
2018-02-18T01:24:19.781Z,43.92
2018-02-18T01:26:47.521Z,42.90
2018-02-18T01:29:15.321Z,36.78
2018-02-18T01:31:43.074Z,36.47
2018-02-18T01:34:10.817Z,34.42
2018-02-18T01:36:38.615Z,34.20
2018-02-18T01:39:06.353Z,36.15
2018-02-18T01:41:34.106Z,33.60
2018-02-18T01:44:01.910Z,34.63
2018-02-18T01:46:29.666Z,33.53
2018-02-18T01:48:58.181Z,38.45
2018-02-18T01:51:26.768Z,33.03
2018-02-18T01:53:55.392Z,33.40
2018-02-18T01:56:23.907Z,33.10
2018-02-18T01:58:51.704Z,31.10
2018-02-18T02:01:19.450Z,33.53
2018-02-18T02:03:47.985Z,33.08
2018-02-18T02:06:15.783Z,30.73
2018-02-18T02:08:44.307Z,32.03
2018-02-18T02:11:12.052Z,31.77
2018-02-18T02:13:39.854Z,31.50
2018-02-18T02:16:07.608Z,31.67
2018-02-18T02:18:35.377Z,31.30
2018-02-18T02:21:03.207Z,29.15
2018-02-18T02:23:30.950Z,35.28
2018-02-18T02:25:59.475Z,29.30
2018-02-18T02:28:28.070Z,29.10
2018-02-18T02:30:55.814Z,29.75
2018-02-18T02:33:23.562Z,30.42
2018-02-18T02:35:51.427Z,28.17
2018-02-18T02:38:19.180Z,28.42
2018-02-18T02:40:46.927Z,28.02
2018-02-18T02:43:14.730Z,29.58
2018-02-18T02:45:42.478Z,25.95
2018-02-18T02:48:10.226Z,25.02
2018-02-18T02:50:38.041Z,23.58
2018-02-18T02:53:05.796Z,25.42
2018-02-18T02:55:33.550Z,25.25
2018-02-18T02:58:01.351Z,25.77
2018-02-18T03:00:29.107Z,24.75
2018-02-18T03:02:56.878Z,24.02
2018-02-18T03:05:24.688Z,23.60
2018-02-18T03:07:52.478Z,22.85
2018-02-18T03:10:20.229Z,25.83
2018-02-18T03:12:48.038Z,24.70
2018-02-18T03:15:15.778Z,24.02
2018-02-18T03:17:44.291Z,27.02
2018-02-18T03:20:12.104Z,26.00
2018-02-18T03:22:39.848Z,25.73
2018-02-18T03:25:07.607Z,22.60
2018-02-18T03:27:35.398Z,24.02
2018-02-18T03:30:03.925Z,25.00
2018-02-18T03:32:31.685Z,23.75
2018-02-18T03:34:59.494Z,24.52
2018-02-18T03:37:27.249Z,23.67
2018-02-18T03:39:55.010Z,24.42
2018-02-18T03:42:23.067Z,23.87
2018-02-18T03:44:50.805Z,25.15
2018-02-18T03:47:18.562Z,21.98
2018-02-18T03:49:46.353Z,22.27
2018-02-18T03:52:14.910Z,21.85
2018-02-18T03:54:42.657Z,21.95
2018-02-18T03:57:10.462Z,20.85
2018-02-18T03:59:38.213Z,20.77
2018-02-18T04:02:05.993Z,21.70
2018-02-18T04:04:34.092Z,19.30
2018-02-18T04:07:02.598Z,19.60
2018-02-18T04:09:30.342Z,21.02
2018-02-18T04:11:58.360Z,20.35
2018-02-18T04:14:26.102Z,19.25
2018-02-18T04:16:53.845Z,19.10
2018-02-18T04:19:21.650Z,18.98
2018-02-18T04:21:49.389Z,19.85
2018-02-18T04:24:17.133Z,17.73
2018-02-18T04:26:44.922Z,18.15
2018-02-18T04:29:12.662Z,18.58
2018-02-18T04:31:40.404Z,17.10
2018-02-18T04:34:08.197Z,18.70
2018-02-18T04:36:35.941Z,17.10
2018-02-18T04:39:03.693Z,18.15
2018-02-18T04:41:31.495Z,17.62
2018-02-18T04:43:59.232Z,18.67
2018-02-18T04:46:26.974Z,18.98
2018-02-18T04:48:54.769Z,17.30
2018-02-18T04:51:22.506Z,17.08
2018-02-18T04:53:50.246Z,16.20
2018-02-18T04:56:18.809Z,18.27
2018-02-18T04:58:47.324Z,17.48
2018-02-18T05:01:15.062Z,16.85
2018-02-18T05:03:43.626Z,17.55
2018-02-18T05:06:11.373Z,16.83
2018-02-18T05:08:39.108Z,18.30
2018-02-18T05:11:06.919Z,16.48
2018-02-18T05:13:35.434Z,17.67
2018-02-18T05:16:03.177Z,18.92
2018-02-18T05:18:30.968Z,16.83
2018-02-18T05:20:58.710Z,19.67
2018-02-18T05:23:26.465Z,18.30
2018-02-18T05:25:54.257Z,16.55
2018-02-18T05:28:22.002Z,18.35
2018-02-18T05:30:49.744Z,16.40
2018-02-18T05:33:18.313Z,18.35
2018-02-18T05:35:46.821Z,18.65
2018-02-18T05:38:14.562Z,19.35
2018-02-18T05:40:43.130Z,19.95
2018-02-18T05:43:11.638Z,17.15
2018-02-18T05:45:39.376Z,19.15
2018-02-18T05:48:07.924Z,17.80
2018-02-18T05:50:36.532Z,17.48
2018-02-18T05:53:04.278Z,19.40
2018-02-18T05:55:32.072Z,17.90
2018-02-18T05:58:00.585Z,18.37
2018-02-18T06:00:28.320Z,17.25
2018-02-18T06:02:56.113Z,18.75
2018-02-18T06:05:23.894Z,17.92
2018-02-18T06:07:51.632Z,19.77
2018-02-18T06:10:19.426Z,19.20
2018-02-18T06:12:47.166Z,18.45
2018-02-18T06:15:14.920Z,19.25
2018-02-18T06:17:42.712Z,17.85
2018-02-18T06:20:10.459Z,20.35
2018-02-18T06:22:38.209Z,19.27
2018-02-18T06:25:06.005Z,18.52
2018-02-18T06:27:33.761Z,19.60
2018-02-18T06:30:01.530Z,18.30
2018-02-18T06:32:29.323Z,17.20
2018-02-18T06:34:57.070Z,16.62
2018-02-18T06:37:25.573Z,16.27
2018-02-18T06:39:53.375Z,16.42
2018-02-18T06:42:21.882Z,15.25
2018-02-18T06:44:49.625Z,15.73
2018-02-18T06:47:17.422Z,13.70
2018-02-18T06:49:45.932Z,16.35
2018-02-18T06:52:13.673Z,14.87
2018-02-18T06:54:41.466Z,17.33
2018-02-18T06:57:09.204Z,15.48
2018-02-18T06:59:36.950Z,14.23
2018-02-18T07:02:05.516Z,14.23
2018-02-18T07:04:34.022Z,14.35
2018-02-18T07:07:01.773Z,12.45
2018-02-18T07:09:29.559Z,13.13
2018-02-18T07:11:57.297Z,13.52
2018-02-18T07:14:25.036Z,12.73
2018-02-18T07:16:52.833Z,15.93
2018-02-18T07:19:20.573Z,12.65
2018-02-18T07:21:49.687Z,11.50
2018-02-18T07:24:17.566Z,13.88
2018-02-18T07:26:45.321Z,11.35
2018-02-18T07:29:13.085Z,12.90
2018-02-18T07:31:40.896Z,11.30
2018-02-18T07:34:08.670Z,13.35
2018-02-18T07:36:37.199Z,12.85
2018-02-18T07:39:05.003Z,13.02
2018-02-18T07:41:32.748Z,12.60
2018-02-18T07:44:00.617Z,13.80
2018-02-18T07:46:28.409Z,11.63
2018-02-18T07:48:56.918Z,12.90
2018-02-18T07:51:24.730Z,13.27
2018-02-18T07:53:53.312Z,13.68
2018-02-18T07:56:21.065Z,14.02
2018-02-18T07:58:48.846Z,12.90
2018-02-18T08:01:17.453Z,12.60
2018-02-18T08:03:45.196Z,12.15
2018-02-18T08:06:13.700Z,10.43
2018-02-18T08:08:41.686Z,10.30
2018-02-18T08:11:09.426Z,13.48
2018-02-18T08:13:37.183Z,10.98
2018-02-18T08:16:04.977Z,10.05
2018-02-18T08:18:32.720Z,12.32
2018-02-18T08:21:00.457Z,11.73
2018-02-18T08:23:29.017Z,11.35
2018-02-18T08:25:56.755Z,10.07
2018-02-18T08:28:24.499Z,12.65
2018-02-18T08:30:52.292Z,10.02
2018-02-18T08:33:20.053Z,9.90
2018-02-18T08:35:47.842Z,10.25
2018-02-18T08:38:15.649Z,10.48
2018-02-18T08:40:43.397Z,9.75
2018-02-18T08:43:11.144Z,10.15
2018-02-18T08:45:38.946Z,10.20
2018-02-18T08:48:06.690Z,10.25
2018-02-18T08:50:34.544Z,10.30
2018-02-18T08:53:02.349Z,10.85
2018-02-18T08:55:30.094Z,9.52
2018-02-18T08:57:57.837Z,12.18
2018-02-18T09:00:25.633Z,10.48
2018-02-18T09:02:53.373Z,8.88
2018-02-18T09:05:21.112Z,7.95
2018-02-18T09:07:48.912Z,8.85
2018-02-18T09:10:16.698Z,9.40
2018-02-18T09:12:44.446Z,8.23
2018-02-18T09:15:12.340Z,9.38
2018-02-18T09:17:40.853Z,8.95
2018-02-18T09:20:08.614Z,9.25
2018-02-18T09:22:36.406Z,9.70
2018-02-18T09:25:04.137Z,9.13
2018-02-18T09:27:31.874Z,11.07
2018-02-18T09:29:59.673Z,9.50
2018-02-18T09:32:27.410Z,9.30
2018-02-18T09:34:55.154Z,8.75
2018-02-18T09:37:23.713Z,9.52
2018-02-18T09:39:51.453Z,9.35
2018-02-18T09:42:19.196Z,10.15
2018-02-18T09:44:46.984Z,9.63
2018-02-18T09:47:14.720Z,8.98
2018-02-18T09:49:42.466Z,9.02
2018-02-18T09:52:10.268Z,10.38
2018-02-18T09:54:38.026Z,9.00
2018-02-18T09:57:05.845Z,11.07
2018-02-18T09:59:33.660Z,10.75
2018-02-18T10:02:01.402Z,10.88
2018-02-18T10:04:29.148Z,10.38
2018-02-18T10:07:08.749Z,9.93
2018-02-18T10:09:37.257Z,11.38
2018-02-18T10:12:05.053Z,10.73
2018-02-18T10:14:32.793Z,11.65
2018-02-18T10:17:00.736Z,11.63
2018-02-18T10:19:28.559Z,11.12
2018-02-18T10:21:56.309Z,11.18
2018-02-18T10:24:24.041Z,9.35
2018-02-18T10:26:51.829Z,8.50
2018-02-18T10:29:19.618Z,9.30
2018-02-18T10:31:48.154Z,9.57
2018-02-18T10:34:15.962Z,10.20
2018-02-18T10:36:44.469Z,10.38
2018-02-18T10:39:12.213Z,9.48
2018-02-18T10:41:40.785Z,12.25
2018-02-18T10:44:15.216Z,10.35
2018-02-18T10:49:36.428Z,11.07
2018-02-18T10:52:04.992Z,10.02
2018-02-18T10:54:32.737Z,8.98
2018-02-18T10:57:00.486Z,12.23
2018-02-18T10:59:28.286Z,11.10
2018-02-18T11:01:56.793Z,10.88
2018-02-18T11:04:24.546Z,10.32
2018-02-18T11:06:52.351Z,9.90
2018-02-18T11:09:20.091Z,14.90
2018-02-18T11:11:47.834Z,10.95
2018-02-18T11:14:15.630Z,14.25
2018-02-18T11:16:43.370Z,12.18
2018-02-18T11:19:11.116Z,12.40
2018-02-18T11:21:38.912Z,10.73
2018-02-18T11:24:06.649Z,10.43
2018-02-18T11:26:34.389Z,9.20
2018-02-18T11:29:02.954Z,11.57
2018-02-18T11:31:30.701Z,11.90
2018-02-18T11:33:58.444Z,9.98
2018-02-18T11:36:26.237Z,10.02
2018-02-18T11:38:53.996Z,11.10
2018-02-18T11:41:21.738Z,11.98
2018-02-18T11:43:49.528Z,11.45
2018-02-18T11:46:17.271Z,10.70
2018-02-18T11:48:45.011Z,10.27
2018-02-18T11:51:12.826Z,9.57
2018-02-18T11:53:41.329Z,11.18
2018-02-18T11:56:09.100Z,11.63
2018-02-18T11:58:36.901Z,11.18
2018-02-18T12:01:04.687Z,11.12
2018-02-18T12:03:33.197Z,10.90
2018-02-18T12:06:01.002Z,10.65
2018-02-18T12:08:30.884Z,11.80
2018-02-18T12:10:58.629Z,11.32
2018-02-18T12:13:26.426Z,10.52
2018-02-18T12:15:54.164Z,11.35
2018-02-18T12:18:21.921Z,10.80
2018-02-18T12:20:49.725Z,11.12
2018-02-18T12:23:17.480Z,12.80
2018-02-18T12:25:46.018Z,11.12
2018-02-18T12:28:13.813Z,11.70
2018-02-18T12:30:49.475Z,11.07
2018-02-18T12:33:17.278Z,11.10
2018-02-18T12:35:45.789Z,12.20
2018-02-18T12:38:13.532Z,11.43
2018-02-18T12:40:41.349Z,10.70
2018-02-18T12:43:09.098Z,12.00
2018-02-18T12:45:36.845Z,11.52
2018-02-18T12:48:04.655Z,11.43
2018-02-18T12:50:33.167Z,12.00
2018-02-18T12:53:00.915Z,12.18
2018-02-18T12:55:28.709Z,10.25
2018-02-18T12:57:56.477Z,13.20
2018-02-18T13:00:24.237Z,11.77
2018-02-18T13:03:11.046Z,11.18
2018-02-18T13:05:38.893Z,13.40
2018-02-18T13:08:06.689Z,12.57
2018-02-18T13:10:34.430Z,11.27
2018-02-18T13:13:02.173Z,13.52
2018-02-18T13:15:29.972Z,11.30
2018-02-18T13:17:58.242Z,13.13
2018-02-18T13:20:25.985Z,12.88
2018-02-18T13:22:53.787Z,13.18
2018-02-18T13:25:21.533Z,13.62
2018-02-18T13:27:49.273Z,13.77
2018-02-18T13:30:17.079Z,12.13
2018-02-18T13:32:45.582Z,12.43
2018-02-18T13:35:13.321Z,13.45
2018-02-18T13:37:45.421Z,21.23
2018-02-18T13:40:13.211Z,14.00
2018-02-18T13:42:40.958Z,13.32
2018-02-18T13:45:09.181Z,10.18
2018-02-18T13:47:37.698Z,12.20
2018-02-18T13:50:05.453Z,11.43
2018-02-18T13:52:33.251Z,10.95
2018-02-18T13:55:01.095Z,10.75
2018-02-18T13:57:28.841Z,11.32
2018-02-18T13:59:57.103Z,12.20
2018-02-18T14:02:35.532Z,12.70
2018-02-18T14:05:03.333Z,12.07
2018-02-18T14:07:31.068Z,12.40
2018-02-18T14:09:58.814Z,12.20
2018-02-18T14:12:26.618Z,11.35
2018-02-18T14:14:54.362Z,13.10
2018-02-18T14:17:26.398Z,10.15
2018-02-18T14:19:54.315Z,10.23
2018-02-18T14:22:22.061Z,11.65
2018-02-18T14:24:49.873Z,9.57
2018-02-18T14:27:17.615Z,10.85
2018-02-18T14:29:46.117Z,10.82
2018-02-18T14:32:13.902Z,9.00
2018-02-18T14:34:41.707Z,11.57
2018-02-18T14:37:09.448Z,10.65
2018-02-18T14:39:48.392Z,11.88
2018-02-18T14:42:27.936Z,11.38
2018-02-18T14:45:07.687Z,11.40
2018-02-18T14:47:47.873Z,13.45
2018-02-18T14:50:27.361Z,12.70
2018-02-18T14:53:06.882Z,10.43
2018-02-18T14:55:46.496Z,13.60
2018-02-18T14:58:14.863Z,12.77
2018-02-18T15:00:42.604Z,13.65
2018-02-18T15:03:10.404Z,14.15
2018-02-18T15:05:38.144Z,13.90
2018-02-18T15:08:05.880Z,15.60
2018-02-18T15:10:34.439Z,13.98
2018-02-18T15:13:02.189Z,11.15
2018-02-18T15:15:29.928Z,14.10
2018-02-18T15:17:57.721Z,13.98
2018-02-18T15:20:25.466Z,12.52
2018-02-18T15:22:53.216Z,14.77
2018-02-18T15:25:21.014Z,12.43
2018-02-18T15:27:48.754Z,13.10
2018-02-18T15:30:16.488Z,12.95
2018-02-18T15:32:44.479Z,12.07
2018-02-18T15:35:12.221Z,10.70
2018-02-18T15:37:39.965Z,12.07
2018-02-18T15:40:07.857Z,12.57
2018-02-18T15:42:35.600Z,10.82
2018-02-18T15:45:04.313Z,10.43
2018-02-18T15:47:33.210Z,12.73
2018-02-18T15:50:00.959Z,10.88
2018-02-18T15:52:28.725Z,11.55
2018-02-18T15:54:56.535Z,11.43
2018-02-18T15:57:24.285Z,11.63
2018-02-18T15:59:53.191Z,13.25
2018-02-18T16:02:22.431Z,10.93
2018-02-18T16:04:54.248Z,12.23
2018-02-18T16:07:23.677Z,11.70
2018-02-18T16:09:53.673Z,12.73
2018-02-18T16:12:23.027Z,13.65
2018-02-18T16:14:51.799Z,15.07
2018-02-18T16:17:19.577Z,15.85
2018-02-18T16:19:48.094Z,17.70
2018-02-18T16:22:15.885Z,19.37
2018-02-18T16:24:43.630Z,18.30
2018-02-18T16:27:11.370Z,20.23
2018-02-18T16:29:39.171Z,18.80
2018-02-18T16:32:06.928Z,20.12
2018-02-18T16:34:34.678Z,21.25
2018-02-18T16:37:02.476Z,23.17
2018-02-18T16:39:30.223Z,29.85
2018-02-18T16:41:57.963Z,31.10
2018-02-18T16:44:25.783Z,26.62
2018-02-18T16:46:54.292Z,28.55
2018-02-18T16:49:22.062Z,36.40
2018-02-18T16:51:49.866Z,38.85
2018-02-18T16:54:17.671Z,41.65
2018-02-18T16:56:45.434Z,39.20
2018-02-18T16:59:13.232Z,36.63
2018-02-18T17:01:40.987Z,35.67
2018-02-18T17:04:08.737Z,39.33
2018-02-18T17:06:37.607Z,39.28
2018-02-18T17:09:05.502Z,34.50
2018-02-18T17:11:34.320Z,36.72
2018-02-18T17:14:02.917Z,39.15
2018-02-18T17:16:31.449Z,37.85
2018-02-18T17:18:59.208Z,35.88
2018-02-18T17:21:27.087Z,32.45
2018-02-18T17:23:54.923Z,31.50
2018-02-18T17:26:22.744Z,27.10
2018-02-18T17:28:51.318Z,25.27
2018-02-18T17:31:19.125Z,25.30
2018-02-18T17:33:47.619Z,26.58
2018-02-18T17:36:15.453Z,25.30
2018-02-18T17:38:43.310Z,24.80
2018-02-18T17:41:11.070Z,25.88
2018-02-18T17:43:39.710Z,27.10
2018-02-18T17:46:07.457Z,31.62
2018-02-18T17:48:36.227Z,30.08
2018-02-18T17:51:04.228Z,39.80
2018-02-18T17:53:32.836Z,38.67
2018-02-18T17:56:01.569Z,37.90
2018-02-18T17:58:29.381Z,36.03
2018-02-18T18:00:57.943Z,36.83
2018-02-18T18:03:25.775Z,34.95
2018-02-18T18:05:53.598Z,33.22
2018-02-18T18:08:22.325Z,32.95
2018-02-18T18:10:50.886Z,30.92
2018-02-18T18:13:18.682Z,30.50
2018-02-18T18:15:46.442Z,29.77
2018-02-18T18:18:14.185Z,27.42
2018-02-18T18:20:41.985Z,30.35
2018-02-18T18:23:09.744Z,30.45
2018-02-18T18:25:37.493Z,31.20
2018-02-18T18:28:05.294Z,29.73
2018-02-18T18:30:35.481Z,29.00
2018-02-18T18:33:04.020Z,28.25
2018-02-18T18:35:31.873Z,29.77
2018-02-18T18:37:59.617Z,30.33
2018-02-18T18:40:28.153Z,36.75
2018-02-18T18:42:55.940Z,35.45
2018-02-18T18:45:23.697Z,34.83
2018-02-18T18:47:51.458Z,32.08
2018-02-18T18:50:19.259Z,31.60
2018-02-18T18:52:47.072Z,31.58
2018-02-18T18:55:14.814Z,37.58
2018-02-18T18:57:42.611Z,36.35
2018-02-18T19:00:10.382Z,36.80
2018-02-18T19:02:38.141Z,37.92
2018-02-18T19:05:05.950Z,33.80
2018-02-18T19:07:33.696Z,36.28
2018-02-18T19:10:01.458Z,30.62
2018-02-18T19:12:29.253Z,31.08
2018-02-18T19:14:57.766Z,32.05
2018-02-18T19:17:25.510Z,26.62
2018-02-18T19:19:53.317Z,25.50
2018-02-18T19:22:21.064Z,28.25
2018-02-18T19:24:49.585Z,30.33
2018-02-18T19:27:17.400Z,28.38
2018-02-18T19:29:45.935Z,23.75
2018-02-18T19:32:13.688Z,25.80
2018-02-18T19:34:41.490Z,27.00
2018-02-18T19:37:09.233Z,28.65
2018-02-18T19:39:37.769Z,25.30
2018-02-18T19:42:05.591Z,29.17
2018-02-18T19:44:33.358Z,28.50
2018-02-18T19:47:01.107Z,27.08
2018-02-18T19:49:28.903Z,27.90
2018-02-18T19:51:56.654Z,26.58
2018-02-18T19:54:24.398Z,24.77
2018-02-18T19:56:52.201Z,29.95
2018-02-18T19:59:19.950Z,25.60
2018-02-18T20:01:48.536Z,25.02
2018-02-18T20:04:17.105Z,28.33
2018-02-18T20:06:45.612Z,27.75
2018-02-18T20:09:13.380Z,27.20
2018-02-18T20:11:41.207Z,28.10
2018-02-18T20:14:08.948Z,28.55
2018-02-18T20:16:36.709Z,29.45
2018-02-18T20:19:04.501Z,29.80
2018-02-18T20:21:33.013Z,35.95
2018-02-18T20:24:00.832Z,30.67
2018-02-18T20:26:29.414Z,32.10
2018-02-18T20:28:57.928Z,35.17
2018-02-18T20:31:25.686Z,33.60
2018-02-18T20:33:53.487Z,32.25
2018-02-18T20:36:21.240Z,35.45
2018-02-18T20:38:49.757Z,34.63
2018-02-18T20:41:17.622Z,34.92
2018-02-18T20:43:45.373Z,34.15
2018-02-18T20:46:13.117Z,36.85
2018-02-18T20:48:40.917Z,34.80
2018-02-18T20:51:09.488Z,35.38
2018-02-18T20:53:38.009Z,31.58
2018-02-18T20:56:05.821Z,35.30
2018-02-18T20:58:34.257Z,37.03
2018-02-18T21:01:02.113Z,34.75
2018-02-18T21:03:30.208Z,39.53
2018-02-18T21:05:57.960Z,34.05
2018-02-18T21:08:25.702Z,36.28
2018-02-18T21:10:53.531Z,38.72
2018-02-18T21:13:22.067Z,34.03
2018-02-18T21:15:49.978Z,32.88
2018-02-18T21:18:18.549Z,32.22
2018-02-18T21:20:47.060Z,33.53
2018-02-18T21:23:14.835Z,34.55
2018-02-18T21:25:42.649Z,32.30
2018-02-18T21:28:11.166Z,36.97
2018-02-18T21:30:38.945Z,34.40
2018-02-18T21:33:06.753Z,36.67
2018-02-18T21:35:34.517Z,36.28
2018-02-18T21:38:02.350Z,34.30
2018-02-18T21:40:30.179Z,36.00
2018-02-18T21:42:57.928Z,33.28
2018-02-18T21:45:26.445Z,37.13
2018-02-18T21:47:54.253Z,31.58
2018-02-18T21:50:22.764Z,28.67
2018-02-18T21:52:50.590Z,33.08
2018-02-18T21:55:18.390Z,28.17
2018-02-18T21:57:48.375Z,28.52
2018-02-18T22:00:16.893Z,27.25
2018-02-18T22:02:44.685Z,31.83
2018-02-18T22:05:12.451Z,28.17
2018-02-18T22:07:40.198Z,26.20
2018-02-18T22:10:07.997Z,28.83
2018-02-18T22:12:35.754Z,29.83
2018-02-18T22:15:03.510Z,35.72
2018-02-18T22:17:31.308Z,35.25
2018-02-18T22:19:59.053Z,34.65
2018-02-18T22:22:27.655Z,35.33
2018-02-18T22:24:55.458Z,35.92
2018-02-18T22:27:23.207Z,34.03
2018-02-18T22:29:50.967Z,31.70
2018-02-18T22:32:18.790Z,28.62
2018-02-18T22:34:47.297Z,32.67
2018-02-18T22:37:15.037Z,30.88
2018-02-18T22:39:42.838Z,37.72
2018-02-18T22:42:10.589Z,39.47
2018-02-18T22:44:38.354Z,32.33
2018-02-18T22:47:06.354Z,30.52
2018-02-18T22:49:34.106Z,41.35
2018-02-18T22:52:01.858Z,38.28
2018-02-18T22:54:31.238Z,33.60
2018-02-18T22:57:01.381Z,29.17
2018-02-18T22:59:29.628Z,28.08
2018-02-18T23:01:59.982Z,26.55
2018-02-18T23:04:28.628Z,30.50
2018-02-18T23:06:56.910Z,29.30
2018-02-18T23:09:24.738Z,26.95
2018-02-18T23:11:52.605Z,28.48
2018-02-18T23:14:21.162Z,30.08
2018-02-18T23:16:48.905Z,31.30
2018-02-18T23:19:17.413Z,50.85
2018-02-18T23:21:45.976Z,32.20
2018-02-18T23:24:13.725Z,35.97
2018-02-18T23:26:41.472Z,32.97
2018-02-18T23:29:09.454Z,31.55
2018-02-18T23:31:37.208Z,30.55
2018-02-18T23:34:04.947Z,36.55
2018-02-18T23:36:32.744Z,31.75
2018-02-18T23:39:00.494Z,31.00
2018-02-18T23:41:28.233Z,25.25
2018-02-18T23:43:56.029Z,26.05
2018-02-18T23:46:23.769Z,29.25
2018-02-18T23:48:51.521Z,29.67
2018-02-18T23:51:19.314Z,26.80
2018-02-18T23:53:47.063Z,26.37
2018-02-18T23:56:14.804Z,27.30
2018-02-18T23:58:42.605Z,28.42
